Time;durP1;ratioP1;P1;durP2;ratioP2;P2;SDS_P1;SDS_P2;PMS_P1;PMS_P2;Temp;Humidity;BMP_temperature;BMP_pressure;BME280_temperature;BME280_humidity;BME280_pressure;Samples;Min_cycle;Max_cycle;Signal;HPM_P1;HPM_P2
2022/01/02 00:02:12;;;;;;;5.90;3.17;;;12.90;99.90;;;;;;5078522;28;20354;-62
2022/01/02 00:04:46;;;;;;;6.47;2.65;;;12.90;99.90;;;;;;5078625;28;20412;-58
2022/01/02 00:07:16;;;;;;;7.55;3.08;;;12.80;99.90;;;;;;5079140;28;20029;-58
2022/01/02 00:09:44;;;;;;;10.43;3.00;;;12.80;99.90;;;;;;5078371;28;20031;-58
2022/01/02 00:12:13;;;;;;;8.20;3.05;;;12.70;99.90;;;;;;5078339;28;20051;-59
2022/01/02 00:14:46;;;;;;;6.38;3.00;;;12.60;99.90;;;;;;5045786;28;20043;-59
2022/01/02 00:17:13;;;;;;;9.23;3.13;;;12.60;99.90;;;;;;5078867;28;20025;-59
2022/01/02 00:19:45;;;;;;;9.05;3.45;;;12.50;99.90;;;;;;5078906;28;20033;-59
2022/01/02 00:22:18;;;;;;;8.35;3.17;;;12.50;99.90;;;;;;5078823;28;20258;-59
2022/01/02 00:24:45;;;;;;;8.90;2.90;;;12.50;99.90;;;;;;5078683;28;20081;-59
2022/01/02 00:27:14;;;;;;;6.22;3.00;;;12.40;99.90;;;;;;5078677;28;20384;-60
2022/01/02 00:29:42;;;;;;;11.63;3.70;;;12.40;99.90;;;;;;5078720;28;20417;-60
2022/01/02 00:32:10;;;;;;;10.13;3.53;;;12.40;99.90;;;;;;5078676;28;20024;-62
2022/01/02 00:34:38;;;;;;;8.73;3.80;;;12.40;99.90;;;;;;5077503;28;20033;-64
2022/01/02 00:37:04;;;;;;;8.20;3.70;;;12.40;99.90;;;;;;5077805;28;20048;-61
2022/01/02 00:39:31;;;;;;;10.88;3.70;;;12.40;99.90;;;;;;5078641;28;20407;-58
2022/01/02 00:42:05;;;;;;;10.10;3.80;;;12.40;99.90;;;;;;5078751;28;20444;-61
2022/01/02 00:44:51;;;;;;;9.18;2.95;;;12.40;99.90;;;;;;5078311;28;20094;-60
2022/01/02 00:47:50;;;;;;;12.95;3.65;;;12.40;99.90;;;;;;5078559;28;20052;-60
2022/01/02 00:50:25;;;;;;;8.30;3.45;;;12.40;99.90;;;;;;5078842;28;20102;-59
2022/01/02 00:52:51;;;;;;;15.32;3.80;;;12.40;99.90;;;;;;5078221;28;20043;-59
2022/01/02 00:55:22;;;;;;;11.05;3.50;;;12.50;99.90;;;;;;5078151;28;20025;-59
2022/01/02 00:58:03;;;;;;;8.32;3.22;;;12.50;99.90;;;;;;5077254;28;20113;-59
2022/01/02 01:00:29;;;;;;;11.52;3.30;;;12.50;99.90;;;;;;5077315;28;20027;-60
2022/01/02 01:02:57;;;;;;;11.93;3.20;;;12.40;99.90;;;;;;5078031;28;20029;-60
2022/01/02 01:05:30;;;;;;;10.20;3.22;;;12.50;99.90;;;;;;5060754;28;20028;-60
2022/01/02 01:07:58;;;;;;;8.40;3.53;;;12.40;99.90;;;;;;5077926;28;20082;-61
2022/01/02 01:10:27;;;;;;;14.95;4.18;;;12.50;99.90;;;;;;5060484;28;20039;-60
2022/01/02 01:12:55;;;;;;;12.48;3.50;;;12.50;99.90;;;;;;5077082;28;20095;-60
2022/01/02 01:15:23;;;;;;;10.90;3.63;;;12.60;99.90;;;;;;5077028;28;20310;-60
2022/01/02 01:17:52;;;;;;;8.43;3.10;;;12.60;99.90;;;;;;5077080;28;20036;-60
2022/01/02 01:20:19;;;;;;;10.73;3.13;;;12.60;99.90;;;;;;5077274;28;20338;-59
2022/01/02 01:22:46;;;;;;;13.50;4.38;;;12.60;99.90;;;;;;5076801;28;20029;-59
2022/01/02 01:25:16;;;;;;;12.20;3.40;;;12.60;99.90;;;;;;5060697;28;20047;-60
2022/01/02 01:27:45;;;;;;;9.50;3.47;;;12.60;99.90;;;;;;5076715;28;20358;-60
2022/01/02 01:30:13;;;;;;;7.82;2.60;;;12.70;99.90;;;;;;5078116;28;20052;-61
2022/01/02 01:32:39;;;;;;;6.35;2.70;;;12.70;99.90;;;;;;5077554;28;20075;-59
2022/01/02 01:35:07;;;;;;;11.48;2.92;;;12.80;99.90;;;;;;5077659;28;20040;-58
2022/01/02 01:37:33;;;;;;;10.00;3.20;;;12.80;99.90;;;;;;5077126;28;20045;-58
2022/01/02 01:39:59;;;;;;;7.43;2.53;;;12.80;99.90;;;;;;5077279;28;20048;-58
2022/01/02 01:42:35;;;;;;;10.00;3.38;;;12.80;99.90;;;;;;5077166;28;20029;-58
2022/01/02 01:47:46;;;;;;;10.30;2.63;;;12.80;99.90;;;;;;5077115;28;20024;-58
2022/01/02 01:50:12;;;;;;;6.38;2.78;;;12.80;99.90;;;;;;5076249;28;20048;-58
2022/01/02 01:52:39;;;;;;;9.85;3.35;;;12.70;99.90;;;;;;5076149;28;20037;-59
2022/01/02 01:55:05;;;;;;;7.57;2.95;;;12.70;99.90;;;;;;5076219;28;20033;-58
2022/01/02 01:57:32;;;;;;;8.63;2.75;;;12.80;99.90;;;;;;5076175;28;20028;-58
2022/01/02 01:59:58;;;;;;;9.85;2.65;;;12.80;99.90;;;;;;5076111;28;20024;-58
2022/01/02 02:02:25;;;;;;;7.45;2.42;;;12.80;99.90;;;;;;5076883;28;20033;-59
2022/01/02 02:04:51;;;;;;;7.47;2.88;;;12.80;99.90;;;;;;5076127;28;20032;-58
2022/01/02 02:07:30;;;;;;;15.10;3.08;;;12.80;99.90;;;;;;5076773;28;20133;-58
2022/01/02 02:12:26;;;;;;;7.75;2.80;;;12.80;99.90;;;;;;5076800;28;20032;-58
2022/01/02 02:14:53;;;;;;;6.57;2.90;;;12.80;99.90;;;;;;5076785;28;20028;-58
2022/01/02 02:17:19;;;;;;;10.35;2.78;;;12.90;99.90;;;;;;5076563;28;20312;-59
2022/01/02 02:19:46;;;;;;;5.53;2.55;;;12.90;99.90;;;;;;5075951;28;20033;-59
2022/01/02 02:22:13;;;;;;;6.28;2.92;;;12.90;99.90;;;;;;5075853;28;20024;-58
2022/01/02 02:24:41;;;;;;;9.93;2.75;;;12.90;99.90;;;;;;5075999;28;20043;-59
2022/01/02 02:27:07;;;;;;;8.95;3.08;;;12.90;99.90;;;;;;5076270;28;20033;-59
2022/01/02 02:29:33;;;;;;;8.50;2.58;;;12.90;99.90;;;;;;5060115;28;20113;-58
2022/01/02 02:31:58;;;;;;;8.52;2.92;;;12.90;99.90;;;;;;5076817;28;20033;-59
2022/01/02 02:34:24;;;;;;;10.38;3.22;;;12.90;99.90;;;;;;5076585;28;20058;-59
2022/01/02 02:36:50;;;;;;;10.40;3.08;;;12.90;99.90;;;;;;5075646;28;20400;-58
2022/01/02 02:39:17;;;;;;;10.88;2.90;;;12.90;99.90;;;;;;5075686;28;20037;-59
2022/01/02 02:41:44;;;;;;;8.15;2.70;;;12.90;99.90;;;;;;5076569;28;20025;-59
2022/01/02 02:44:21;;;;;;;9.55;3.00;;;12.80;99.90;;;;;;5059160;28;20329;-59
2022/01/02 02:49:31;;;;;;;8.63;3.33;;;12.80;99.90;;;;;;5076985;28;20107;-59
2022/01/02 02:52:03;;;;;;;9.10;2.70;;;12.80;99.90;;;;;;5075674;28;20141;-58
2022/01/02 02:54:33;;;;;;;6.43;3.10;;;12.80;99.90;;;;;;5075674;28;20124;-58
2022/01/02 02:57:00;;;;;;;7.30;2.88;;;12.70;99.90;;;;;;5076699;28;20355;-58
2022/01/02 02:59:35;;;;;;;8.20;2.83;;;12.70;99.90;;;;;;5063500;28;20039;-58
2022/01/02 03:02:02;;;;;;;9.18;2.70;;;12.70;99.90;;;;;;5080254;28;20032;-58
2022/01/02 03:04:34;;;;;;;8.30;3.28;;;12.70;99.90;;;;;;5079391;28;20067;-58
2022/01/02 03:07:00;;;;;;;9.73;3.00;;;12.70;99.90;;;;;;5079310;28;20036;-59
2022/01/02 03:09:50;;;;;;;5.78;2.47;;;12.60;99.90;;;;;;5079208;28;20047;-59
2022/01/02 03:12:14;;;;;;;10.75;3.10;;;12.70;99.90;;;;;;5079139;28;20043;-58
2022/01/02 03:14:45;;;;;;;9.10;2.75;;;12.70;99.90;;;;;;5080538;28;20048;-58
2022/01/02 03:17:11;;;;;;;6.65;2.80;;;12.60;99.90;;;;;;5062506;28;20024;-58
2022/01/02 03:19:37;;;;;;;7.05;2.60;;;12.60;99.90;;;;;;5080042;28;20093;-57
2022/01/02 03:22:05;;;;;;;7.68;2.85;;;12.60;99.90;;;;;;5079836;28;20031;-58
2022/01/02 03:24:31;;;;;;;7.72;2.78;;;12.60;99.90;;;;;;5079779;28;20029;-59
2022/01/02 03:26:57;;;;;;;7.50;2.90;;;12.60;99.90;;;;;;5078877;28;20035;-58
2022/01/02 03:29:23;;;;;;;5.15;2.42;;;12.60;99.90;;;;;;5062361;28;20029;-58
2022/01/02 03:31:49;;;;;;;6.80;2.42;;;12.70;99.90;;;;;;5062711;28;20400;-58
2022/01/02 03:34:15;;;;;;;5.95;2.58;;;12.70;99.90;;;;;;5078807;28;20144;-59
2022/01/02 03:36:41;;;;;;;5.18;2.63;;;12.80;99.90;;;;;;5079379;28;20056;-58
2022/01/02 03:39:07;;;;;;;5.20;2.25;;;12.70;99.90;;;;;;5078593;28;20098;-58
2022/01/02 03:41:33;;;;;;;5.30;2.28;;;12.70;99.90;;;;;;5079513;28;20037;-59
2022/01/02 03:43:59;;;;;;;5.85;2.75;;;12.70;99.90;;;;;;5078675;28;20025;-59
2022/01/02 03:46:25;;;;;;;5.45;2.58;;;12.70;99.90;;;;;;5078495;28;20395;-59
2022/01/02 03:48:51;;;;;;;7.03;2.17;;;12.70;99.90;;;;;;5078564;28;20032;-59
2022/01/02 03:51:17;;;;;;;6.35;2.50;;;12.70;99.90;;;;;;5078553;28;20119;-59
2022/01/02 03:53:43;;;;;;;4.75;2.42;;;12.60;99.90;;;;;;5078436;28;20036;-59
2022/01/02 03:56:09;;;;;;;8.45;2.40;;;12.60;99.90;;;;;;5078484;28;20101;-60
2022/01/02 03:58:35;;;;;;;5.55;2.70;;;12.50;99.90;;;;;;5079098;28;20182;-59
2022/01/02 04:01:01;;;;;;;5.95;2.47;;;12.50;99.90;;;;;;5078307;28;20039;-59
2022/01/02 04:03:27;;;;;;;5.57;2.40;;;12.50;99.90;;;;;;5079071;28;20081;-59
2022/01/02 04:05:52;;;;;;;7.32;2.75;;;12.50;99.90;;;;;;5079280;28;20400;-59
2022/01/02 04:08:18;;;;;;;6.80;3.00;;;12.50;99.90;;;;;;5078870;28;20055;-59
2022/01/02 04:10:44;;;;;;;5.88;2.50;;;12.50;99.90;;;;;;5079010;28;20047;-59
2022/01/02 04:13:10;;;;;;;5.03;2.55;;;12.40;99.90;;;;;;5078133;28;20044;-58
2022/01/02 04:15:36;;;;;;;6.50;2.90;;;12.30;99.90;;;;;;5079544;28;20391;-59
2022/01/02 04:18:05;;;;;;;5.07;2.25;;;12.30;99.90;;;;;;5078919;28;20354;-59
2022/01/02 04:20:31;;;;;;;6.22;2.47;;;12.20;99.90;;;;;;5079333;28;20032;-59
2022/01/02 04:22:57;;;;;;;8.48;2.75;;;12.20;99.90;;;;;;5078841;28;20059;-59
2022/01/02 04:25:25;;;;;;;8.15;3.03;;;12.20;99.90;;;;;;5077823;28;20052;-59
2022/01/02 04:27:51;;;;;;;5.55;2.47;;;12.20;99.90;;;;;;5077618;28;20060;-59
2022/01/02 04:30:17;;;;;;;8.07;2.40;;;12.20;99.90;;;;;;5078596;28;20037;-59
2022/01/02 04:32:43;;;;;;;6.10;2.60;;;12.20;99.90;;;;;;5077686;28;20035;-59
2022/01/02 04:35:10;;;;;;;7.20;2.83;;;12.20;99.90;;;;;;5077619;28;20308;-59
2022/01/02 04:37:36;;;;;;;7.00;2.38;;;12.10;99.90;;;;;;5077670;28;20274;-59
2022/01/02 04:40:03;;;;;;;9.05;3.00;;;12.20;99.90;;;;;;5077569;28;20029;-59
2022/01/02 04:42:30;;;;;;;6.15;2.40;;;12.20;99.90;;;;;;5078301;28;20028;-59
2022/01/02 04:44:56;;;;;;;8.23;2.70;;;12.20;99.90;;;;;;5077567;28;20021;-60
2022/01/02 04:47:22;;;;;;;7.15;2.45;;;12.20;99.90;;;;;;5077343;28;20032;-59
2022/01/02 04:49:48;;;;;;;6.63;2.30;;;12.10;99.90;;;;;;5077344;28;20029;-59
2022/01/02 04:52:15;;;;;;;7.47;3.10;;;12.10;99.90;;;;;;5077762;28;20038;-59
2022/01/02 04:54:41;;;;;;;5.38;2.65;;;12.10;99.90;;;;;;5078051;28;20303;-59
2022/01/02 04:57:09;;;;;;;6.97;2.85;;;12.10;99.90;;;;;;5077115;28;20111;-62
2022/01/02 04:59:37;;;;;;;5.75;2.35;;;12.20;99.90;;;;;;5077791;28;20032;-59
2022/01/02 05:02:04;;;;;;;6.00;2.45;;;12.20;99.90;;;;;;5076970;28;20040;-60
2022/01/02 05:04:29;;;;;;;4.80;2.40;;;12.20;99.90;;;;;;5077026;28;20044;-59
2022/01/02 05:06:57;;;;;;;4.18;2.28;;;12.20;99.90;;;;;;5076978;28;20078;-59
2022/01/02 05:09:22;;;;;;;4.60;2.40;;;12.30;99.90;;;;;;5077033;28;20399;-59
2022/01/02 05:11:48;;;;;;;6.80;2.58;;;12.30;99.90;;;;;;5076926;28;20029;-59
2022/01/02 05:14:14;;;;;;;5.90;2.42;;;12.20;99.90;;;;;;5076979;28;20036;-59
2022/01/02 05:16:40;;;;;;;5.72;2.63;;;12.20;99.90;;;;;;5078231;28;20055;-59
2022/01/02 05:19:07;;;;;;;4.47;2.60;;;12.20;99.90;;;;;;5077257;28;20032;-59
2022/01/02 05:21:33;;;;;;;5.78;2.30;;;12.20;99.90;;;;;;5076527;28;20024;-59
2022/01/02 05:23:59;;;;;;;6.95;2.83;;;12.20;99.90;;;;;;5060112;28;20300;-60
2022/01/02 05:26:25;;;;;;;5.03;2.30;;;12.10;99.90;;;;;;5060130;28;20075;-60
2022/01/02 05:28:51;;;;;;;5.88;2.58;;;12.10;99.90;;;;;;5077340;28;20029;-61
2022/01/02 05:31:17;;;;;;;4.90;2.20;;;12.10;99.90;;;;;;5076482;28;20040;-60
2022/01/02 05:33:43;;;;;;;6.40;2.30;;;12.10;99.90;;;;;;5076359;28;20030;-59
2022/01/02 05:36:09;;;;;;;5.43;2.30;;;12.10;99.90;;;;;;5076330;28;20079;-60
2022/01/02 05:38:36;;;;;;;5.57;2.22;;;12.10;99.90;;;;;;5076202;28;20177;-60
2022/01/02 05:41:02;;;;;;;9.57;2.30;;;12.20;99.90;;;;;;5077380;28;20029;-60
2022/01/02 05:43:29;;;;;;;4.78;2.17;;;12.10;99.90;;;;;;5076151;28;20031;-59
2022/01/02 05:46:03;;;;;;;8.85;2.90;;;12.20;99.90;;;;;;5076281;28;20113;-60
2022/01/02 05:48:29;;;;;;;6.70;2.45;;;12.30;99.90;;;;;;5076984;28;20032;-61
2022/01/02 05:50:56;;;;;;;5.45;2.45;;;12.20;99.90;;;;;;5076233;28;20123;-60
2022/01/02 05:53:22;;;;;;;7.13;2.42;;;12.30;99.90;;;;;;5076004;28;20051;-60
2022/01/02 05:55:47;;;;;;;6.22;2.58;;;12.30;99.90;;;;;;5076888;28;20032;-59
2022/01/02 05:58:13;;;;;;;6.95;2.85;;;12.30;99.90;;;;;;5075906;28;20304;-61
2022/01/02 06:00:39;;;;;;;6.57;2.45;;;12.30;99.90;;;;;;5075972;28;20029;-60
2022/01/02 06:03:05;;;;;;;5.75;2.50;;;12.30;99.90;;;;;;5076137;28;20110;-60
2022/01/02 06:05:31;;;;;;;6.05;2.35;;;12.30;99.90;;;;;;5076653;28;20031;-59
2022/01/02 06:07:58;;;;;;;7.43;2.72;;;12.20;99.90;;;;;;5075847;28;20035;-60
2022/01/02 06:10:24;;;;;;;5.60;2.78;;;12.30;99.90;;;;;;5075873;28;20109;-61
2022/01/02 06:12:50;;;;;;;7.68;3.13;;;12.40;99.90;;;;;;5059240;28;20028;-60
2022/01/02 06:15:17;;;;;;;7.03;2.90;;;12.40;99.90;;;;;;5075939;28;20105;-59
2022/01/02 06:17:42;;;;;;;5.47;2.30;;;12.40;99.90;;;;;;5076791;28;20032;-60
2022/01/02 06:20:09;;;;;;;4.90;2.80;;;12.50;99.90;;;;;;5059184;28;20085;-60
2022/01/02 06:22:35;;;;;;;5.63;2.30;;;12.40;99.90;;;;;;5075672;28;20025;-59
2022/01/02 06:25:02;;;;;;;6.82;2.47;;;12.40;99.90;;;;;;5059124;28;20021;-59
2022/01/02 06:27:27;;;;;;;6.00;2.55;;;12.40;99.90;;;;;;5076803;28;20094;-60
2022/01/02 06:29:53;;;;;;;4.72;2.08;;;12.30;99.90;;;;;;5075758;28;20025;-59
2022/01/02 06:32:19;;;;;;;4.70;2.40;;;12.20;99.90;;;;;;5077373;28;20028;-59
2022/01/02 06:34:46;;;;;;;5.50;2.35;;;12.20;99.90;;;;;;5079810;28;20024;-59
2022/01/02 06:37:13;;;;;;;5.10;1.95;;;12.10;99.90;;;;;;5079704;28;20063;-59
2022/01/02 06:39:39;;;;;;;8.07;2.05;;;12.10;99.90;;;;;;5079670;28;20032;-59
2022/01/02 06:42:06;;;;;;;6.20;2.35;;;12.10;99.90;;;;;;5080269;28;20438;-58
2022/01/02 06:44:34;;;;;;;4.70;2.33;;;12.10;99.90;;;;;;5079839;28;20047;-58
2022/01/02 06:46:59;;;;;;;7.65;2.22;;;12.10;99.90;;;;;;5080587;28;20032;-59
2022/01/02 06:49:25;;;;;;;4.57;2.63;;;12.00;99.90;;;;;;5079684;28;20124;-59
2022/01/02 06:51:52;;;;;;;7.07;2.13;;;12.00;99.90;;;;;;5079606;28;20084;-60
2022/01/02 06:54:18;;;;;;;4.15;2.25;;;12.00;99.90;;;;;;5080338;28;20367;-59
2022/01/02 06:56:44;;;;;;;7.05;2.45;;;11.90;99.90;;;;;;5079465;28;20119;-60
2022/01/02 06:59:10;;;;;;;6.07;2.47;;;11.90;99.90;;;;;;5079444;28;20132;-59
2022/01/02 07:01:36;;;;;;;4.80;2.20;;;11.90;99.90;;;;;;5079525;28;20028;-59
2022/01/02 07:04:02;;;;;;;4.03;2.40;;;11.90;99.90;;;;;;5079416;28;20055;-59
2022/01/02 07:06:28;;;;;;;6.85;2.53;;;11.90;99.90;;;;;;5079305;28;20028;-60
2022/01/02 07:08:54;;;;;;;5.55;2.35;;;12.00;99.90;;;;;;5079415;28;20074;-60
2022/01/02 07:11:20;;;;;;;4.20;2.00;;;12.00;99.90;;;;;;5080057;28;20063;-60
2022/01/02 07:13:45;;;;;;;6.65;2.30;;;12.00;99.90;;;;;;5080065;28;20021;-58
2022/01/02 07:16:11;;;;;;;7.60;2.53;;;12.10;99.90;;;;;;5080023;28;20028;-59
2022/01/02 07:18:37;;;;;;;3.38;2.25;;;12.10;99.90;;;;;;5079984;28;20028;-59
2022/01/02 07:21:03;;;;;;;5.53;2.38;;;12.00;99.90;;;;;;5080190;28;20028;-59
2022/01/02 07:23:29;;;;;;;3.28;2.42;;;12.00;99.90;;;;;;5062510;28;20118;-60
2022/01/02 07:25:54;;;;;;;3.70;2.50;;;12.00;99.90;;;;;;5080189;28;20033;-59
2022/01/02 07:28:21;;;;;;;3.55;2.00;;;12.10;99.90;;;;;;5079700;28;20300;-59
2022/01/02 07:30:48;;;;;;;5.50;2.28;;;12.20;99.90;;;;;;5080111;28;20342;-59
2022/01/02 07:33:13;;;;;;;5.55;2.20;;;12.20;99.90;;;;;;5079633;28;20033;-60
2022/01/02 07:35:39;;;;;;;4.85;2.15;;;12.30;99.90;;;;;;5079906;28;20052;-60
2022/01/02 07:38:05;;;;;;;3.92;2.00;;;12.30;99.90;;;;;;5078582;28;20101;-60
2022/01/02 07:40:31;;;;;;;5.18;1.90;;;12.40;99.90;;;;;;5079599;28;20028;-59
2022/01/02 07:42:56;;;;;;;5.45;2.42;;;12.60;99.90;;;;;;5078241;28;20033;-59
2022/01/02 07:45:29;;;;;;;3.53;2.47;;;12.60;99.90;;;;;;5078615;28;20135;-59
2022/01/02 07:47:55;;;;;;;3.67;2.10;;;12.70;99.90;;;;;;5079113;28;20119;-61
2022/01/02 07:50:22;;;;;;;4.50;2.20;;;12.80;99.90;;;;;;5079201;28;20039;-59
2022/01/02 07:52:48;;;;;;;5.50;2.35;;;12.70;99.90;;;;;;5078565;28;20033;-60
2022/01/02 07:55:15;;;;;;;4.93;2.40;;;12.50;99.90;;;;;;5079184;28;20349;-59
2022/01/02 07:57:41;;;;;;;4.45;2.40;;;12.40;99.90;;;;;;5079027;28;20040;-59
2022/01/02 08:00:07;;;;;;;3.55;2.28;;;12.30;99.90;;;;;;5079174;28;20163;-59
2022/01/02 08:02:40;;;;;;;4.88;2.78;;;12.30;99.90;;;;;;5079186;28;20124;-59
2022/01/02 08:05:07;;;;;;;6.82;3.00;;;12.30;99.90;;;;;;5079169;28;20029;-59
2022/01/02 08:07:33;;;;;;;7.43;2.70;;;12.30;99.90;;;;;;5078663;28;20024;-58
2022/01/02 08:09:59;;;;;;;3.33;2.20;;;12.30;99.90;;;;;;5079062;28;20035;-59
2022/01/02 08:12:25;;;;;;;4.72;2.60;;;12.30;99.90;;;;;;5078882;28;20036;-59
2022/01/02 08:14:50;;;;;;;7.15;2.95;;;12.20;99.90;;;;;;5079507;28;20106;-59
2022/01/02 08:17:16;;;;;;;3.72;2.65;;;12.30;99.90;;;;;;5079073;28;20035;-59
2022/01/02 08:19:42;;;;;;;6.80;3.13;;;12.30;99.90;;;;;;5079625;28;20033;-59
2022/01/02 08:22:08;;;;;;;3.38;2.40;;;12.20;99.90;;;;;;5078839;28;20082;-59
2022/01/02 08:24:33;;;;;;;5.82;3.20;;;12.20;99.90;;;;;;5078867;28;20119;-58
2022/01/02 08:26:59;;;;;;;4.75;3.30;;;12.20;99.90;;;;;;5078659;28;20044;-58
2022/01/02 08:29:25;;;;;;;4.72;2.90;;;12.30;99.90;;;;;;5078333;28;20037;-59
2022/01/02 08:31:51;;;;;;;10.75;3.28;;;12.30;99.90;;;;;;5078606;28;20024;-58
2022/01/02 08:34:17;;;;;;;7.15;2.88;;;12.40;99.90;;;;;;5078557;28;20032;-59
2022/01/02 08:36:43;;;;;;;4.68;2.80;;;12.40;99.90;;;;;;5078352;28;20048;-58
2022/01/02 08:39:09;;;;;;;4.53;2.90;;;12.30;99.90;;;;;;5078369;28;20105;-58
2022/01/02 08:41:34;;;;;;;6.40;3.00;;;12.40;99.90;;;;;;5078361;28;20395;-57
2022/01/02 08:44:00;;;;;;;4.50;2.97;;;12.40;99.90;;;;;;5077624;28;20399;-58
2022/01/02 08:46:26;;;;;;;4.43;2.90;;;12.40;99.90;;;;;;5078523;28;20021;-58
2022/01/02 08:48:52;;;;;;;6.63;3.30;;;12.40;99.90;;;;;;5078202;28;20123;-57
2022/01/02 08:51:18;;;;;;;6.45;3.50;;;12.50;99.90;;;;;;5078111;28;20393;-58
2022/01/02 08:53:43;;;;;;;4.55;2.95;;;12.50;99.90;;;;;;5077046;28;20098;-58
2022/01/02 08:56:09;;;;;;;4.55;3.38;;;12.40;99.90;;;;;;5077324;28;20395;-59
2022/01/02 08:58:35;;;;;;;7.05;3.72;;;12.50;99.90;;;;;;5077988;28;20056;-58
2022/01/02 09:01:01;;;;;;;5.30;3.10;;;12.50;99.90;;;;;;5078151;28;20086;-58
2022/01/02 09:03:27;;;;;;;6.07;3.17;;;12.50;99.90;;;;;;5077147;28;20078;-58
2022/01/02 09:05:53;;;;;;;6.03;3.38;;;12.60;99.90;;;;;;5077798;28;20025;-58
2022/01/02 09:08:18;;;;;;;3.97;3.53;;;12.70;99.90;;;;;;5078025;28;20084;-59
2022/01/02 09:10:44;;;;;;;7.43;3.38;;;12.80;99.90;;;;;;5077712;28;20033;-58
2022/01/02 09:13:10;;;;;;;9.60;4.53;;;13.00;99.90;;;;;;5078020;28;20039;-58
2022/01/02 09:15:36;;;;;;;5.80;3.75;;;13.00;99.90;;;;;;5077702;28;20059;-58
2022/01/02 09:18:03;;;;;;;5.78;3.60;;;12.90;99.90;;;;;;5077953;28;20044;-59
2022/01/02 09:20:29;;;;;;;6.25;3.45;;;12.90;99.90;;;;;;5077489;28;20028;-59
2022/01/02 09:22:55;;;;;;;6.07;3.50;;;12.90;99.90;;;;;;5077514;28;20043;-59
2022/01/02 09:25:20;;;;;;;9.32;3.85;;;12.80;99.90;;;;;;5077453;28;20312;-59
2022/01/02 09:27:46;;;;;;;8.57;3.65;;;12.80;99.90;;;;;;5077732;28;20166;-60
2022/01/02 09:30:12;;;;;;;7.13;3.65;;;12.90;99.90;;;;;;5077766;28;20046;-58
2022/01/02 09:32:39;;;;;;;10.00;3.63;;;12.90;99.90;;;;;;5077349;28;20404;-58
2022/01/02 09:35:08;;;;;;;5.13;3.20;;;13.00;99.90;;;;;;5076571;28;20035;-59
2022/01/02 09:37:34;;;;;;;6.53;3.38;;;13.00;99.90;;;;;;5077213;28;20040;-59
2022/01/02 09:40:01;;;;;;;7.20;3.70;;;12.90;99.90;;;;;;5077108;28;20102;-59
2022/01/02 09:42:27;;;;;;;6.57;3.58;;;12.80;99.90;;;;;;5077173;28;20119;-59
2022/01/02 09:44:53;;;;;;;7.38;3.42;;;12.80;99.90;;;;;;5077162;28;20036;-57
2022/01/02 09:47:22;;;;;;;7.53;3.60;;;12.80;99.90;;;;;;5076947;28;20032;-59
2022/01/02 09:49:49;;;;;;;5.80;3.10;;;12.90;99.90;;;;;;5077366;28;20032;-58
2022/01/02 09:52:16;;;;;;;7.15;3.13;;;13.00;99.90;;;;;;5077174;28;20135;-58
2022/01/02 09:54:42;;;;;;;6.47;3.58;;;12.90;99.90;;;;;;5077090;28;20066;-59
2022/01/02 09:57:08;;;;;;;6.82;3.03;;;12.90;99.90;;;;;;5077363;28;20418;-61
2022/01/02 09:59:33;;;;;;;5.43;3.65;;;12.90;99.90;;;;;;5077157;28;20032;-57
2022/01/02 10:02:01;;;;;;;5.40;3.47;;;12.90;99.90;;;;;;5076865;28;20033;-58
2022/01/02 10:04:41;;;;;;;6.00;3.60;;;12.90;99.90;;;;;;5077684;28;20039;-59
2022/01/02 10:07:34;;;;;;;6.95;3.55;;;12.90;99.90;;;;;;5077114;28;20337;-59
2022/01/02 10:10:10;;;;;;;;;;;12.90;99.90;;;;;;5078055;28;20120;-59
2022/01/02 10:12:36;;;;;;;6.90;3.22;;;12.90;99.90;;;;;;5077421;28;19912;-59
2022/01/02 10:15:23;;;;;;;3.63;3.17;;;13.00;99.90;;;;;;5076923;28;20359;-59
2022/01/02 10:18:00;;;;;;;7.47;3.75;;;13.00;99.90;;;;;;5076563;28;20353;-59
2022/01/02 10:20:45;;;;;;;7.53;3.40;;;13.00;99.90;;;;;;5077093;28;20086;-59
2022/01/02 10:23:23;;;;;;;10.02;3.55;;;13.00;99.90;;;;;;5075303;28;20072;-59
2022/01/02 10:25:57;;;;;;;7.07;3.25;;;13.20;99.90;;;;;;5076910;28;20028;-59
2022/01/02 10:28:42;;;;;;;5.88;3.13;;;13.40;99.90;;;;;;5076515;28;20111;-58
2022/01/02 10:31:14;;;;;;;6.95;3.33;;;13.50;99.90;;;;;;5076945;28;20122;-61
2022/01/02 10:33:49;;;;;;;7.72;3.20;;;13.50;99.90;;;;;;5076495;28;20033;-59
2022/01/02 10:36:33;;;;;;;6.13;2.95;;;13.60;99.90;;;;;;5076406;28;20048;-59
2022/01/02 10:39:20;;;;;;;8.20;3.70;;;13.70;99.90;;;;;;5076557;28;20029;-61
2022/01/02 10:41:48;;;;;;;7.43;3.35;;;13.80;99.90;;;;;;5075804;28;20036;-59
2022/01/02 10:44:26;;;;;;;5.07;3.03;;;14.30;99.90;;;;;;5075767;28;20028;-58
2022/01/02 10:47:21;;;;;;;8.68;3.22;;;14.40;99.90;;;;;;5076593;28;20033;-58
2022/01/02 10:49:54;;;;;;;6.00;3.08;;;14.40;99.90;;;;;;5076842;28;20032;-59
2022/01/02 10:52:24;;;;;;;10.50;3.63;;;14.40;99.90;;;;;;5076358;28;20029;-58
2022/01/02 10:54:50;;;;;;;6.30;3.40;;;14.40;99.90;;;;;;5077022;28;20032;-60
2022/01/02 10:57:16;;;;;;;6.45;3.25;;;14.40;99.90;;;;;;5076260;28;20028;-58
2022/01/02 10:59:43;;;;;;;6.45;3.13;;;14.10;99.90;;;;;;5076163;28;20031;-59
2022/01/02 11:02:12;;;;;;;7.05;3.25;;;14.00;99.90;;;;;;5076095;28;20040;-60
2022/01/02 11:04:46;;;;;;;3.80;3.00;;;14.10;99.90;;;;;;5076207;28;20039;-58
2022/01/02 11:07:17;;;;;;;5.65;3.13;;;14.00;99.90;;;;;;5076048;28;20090;-58
2022/01/02 11:09:44;;;;;;;8.57;3.35;;;13.70;99.90;;;;;;5075312;28;20036;-58
2022/01/02 11:12:10;;;;;;;10.52;3.40;;;13.60;99.90;;;;;;5076370;28;20021;-59
2022/01/02 11:14:37;;;;;;;6.25;3.00;;;13.70;99.90;;;;;;5075306;28;20040;-59
2022/01/02 11:17:03;;;;;;;9.07;3.13;;;13.90;99.90;;;;;;5076055;28;20032;-62
2022/01/02 11:19:30;;;;;;;7.75;3.35;;;13.90;99.90;;;;;;5079494;28;20032;-62
2022/01/02 11:21:57;;;;;;;5.68;3.00;;;14.00;99.90;;;;;;5079869;28;20039;-60
2022/01/02 11:24:32;;;;;;;5.57;2.88;;;14.10;99.90;;;;;;5079810;28;20085;-60
2022/01/02 11:27:20;;;;;;;9.18;2.97;;;14.00;99.90;;;;;;5079938;28;20032;-61
2022/01/02 11:29:45;;;;;;;6.63;2.72;;;14.00;99.90;;;;;;5079899;28;20388;-59
2022/01/02 11:32:23;;;;;;;5.22;2.50;;;14.00;99.90;;;;;;5079599;28;20051;-61
2022/01/02 11:34:49;;;;;;;5.90;2.92;;;14.20;99.90;;;;;;5079907;28;20316;-60
2022/01/02 11:37:22;;;;;;;5.70;2.58;;;14.20;99.90;;;;;;5079235;28;20075;-60
2022/01/02 11:39:50;;;;;;;;;;;14.50;99.90;;;;;;5079870;28;20090;-60
2022/01/02 11:42:35;;;;;;;6.75;2.97;;;15.00;99.90;;;;;;5079349;28;19947;-60
2022/01/02 11:45:04;;;;;;;7.00;2.22;;;15.40;99.90;;;;;;5079397;28;20234;-59
2022/01/02 11:47:46;;;;;;;5.20;2.30;;;15.10;99.90;;;;;;5079335;28;20039;-58
2022/01/02 11:50:30;;;;;;;7.00;2.70;;;15.10;99.90;;;;;;5079343;28;20032;-60
2022/01/02 11:53:16;;;;;;;5.43;2.30;;;15.50;99.90;;;;;;5079209;28;20063;-59
2022/01/02 11:55:44;;;;;;;8.43;2.70;;;15.80;99.90;;;;;;5079127;28;20025;-59
2022/01/02 11:58:10;;;;;;;5.63;2.63;;;16.00;99.90;;;;;;5079081;28;20032;-60
2022/01/02 12:00:43;;;;;;;5.32;2.25;;;16.00;99.90;;;;;;5079035;28;20402;-61
2022/01/02 12:03:42;;;;;;;7.70;2.63;;;16.20;99.90;;;;;;5078866;28;20153;-59
2022/01/02 12:06:34;;;;;;;5.93;2.22;;;16.10;99.90;;;;;;5070922;28;20032;-59
2022/01/02 12:09:01;;;;;;;4.78;1.92;;;16.20;99.90;;;;;;5078472;28;20040;-63
2022/01/02 12:11:37;;;;;;;5.75;2.33;;;16.10;99.90;;;;;;5079493;28;20021;-61
2022/01/02 12:14:15;;;;;;;5.88;2.30;;;16.10;99.90;;;;;;5079116;28;20067;-62
2022/01/02 12:16:43;;;;;;;7.57;2.00;;;16.20;99.90;;;;;;5079307;28;20036;-61
2022/01/02 12:19:10;;;;;;;7.03;2.08;;;15.90;99.90;;;;;;5078278;28;20036;-61
2022/01/02 12:21:37;;;;;;;6.75;2.42;;;15.90;99.90;;;;;;5079101;28;20060;-59
2022/01/02 12:24:07;;;;;;;6.93;2.45;;;16.00;99.90;;;;;;5078679;28;20020;-60
2022/01/02 12:26:35;;;;;;;6.40;2.08;;;16.20;99.90;;;;;;5078603;28;20047;-58
2022/01/02 12:29:07;;;;;;;6.82;2.35;;;16.60;99.90;;;;;;5079066;28;20059;-59
2022/01/02 12:31:42;;;;;;;5.40;2.03;;;16.60;99.90;;;;;;5078621;28;20103;-60
2022/01/02 12:34:19;;;;;;;6.40;2.05;;;16.40;99.90;;;;;;5078613;28;20028;-59
2022/01/02 12:36:47;;;;;;;4.80;2.22;;;16.20;99.90;;;;;;5078265;28;20051;-60
2022/01/02 12:39:16;;;;;;;5.75;2.13;;;16.00;99.90;;;;;;5077625;28;20032;-59
2022/01/02 12:41:44;;;;;;;5.22;1.90;;;15.80;99.90;;;;;;5078651;28;20028;-60
2022/01/02 12:44:15;;;;;;;10.30;2.00;;;15.50;99.90;;;;;;5077683;28;20029;-62
2022/01/02 12:46:42;;;;;;;11.68;2.55;;;15.10;99.90;;;;;;5078618;28;20025;-59
2022/01/02 12:49:14;;;;;;;6.00;2.30;;;14.90;99.90;;;;;;5078189;28;20112;-60
2022/01/02 12:51:46;;;;;;;6.40;2.43;;;14.70;99.90;;;;;;5078051;28;20312;-60
2022/01/02 12:54:18;;;;;;;5.20;2.22;;;14.40;99.90;;;;;;5078272;28;20274;-59
2022/01/02 12:56:48;;;;;;;6.75;2.40;;;14.10;99.90;;;;;;5078413;28;20304;-59
2022/01/02 12:59:36;;;;;;;8.65;2.67;;;14.20;99.90;;;;;;5077947;28;20024;-58
2022/01/02 13:02:15;;;;;;;7.05;2.30;;;14.30;99.90;;;;;;5077927;28;20097;-59